Data Viewer
| City | State | Eastern Time | Source | 1 Hour Temp Max | 1 Hour Temp Min | 1 Hour Dew Point Max | 1 Hour Dew Point Min | 1 Hour RH Max | 1 Hour RH Min | 1 Hour BP Max | 1 Hour BP Min | 1 Hour Precip | 1 Hour Wind Max | 1 Hour Wind Max Dir |
|---|---|---|---|---|---|---|---|---|---|---|---|---|---|---|
| Toms River | NJ | 2026-05-06 07:00 | Mesonet | 62 | 60 | 56 | 55 | 84 | 79 | 0.00 | 15 | S | ||
| Toms River | NJ | 2026-05-06 20:00 | Mesonet | 70 | 69 | 60 | 59 | 71 | 68 | 0.00 | 9 | WSW | ||
| Toms River | NJ | 2026-05-07 05:00 | Mesonet | 52 | 51 | 52 | 50 | 99 | 96 | 0.01 | 7 | NNW | ||
| Toms River | NJ | 2026-05-07 04:00 | Mesonet | 54 | 52 | 53 | 51 | 99 | 95 | 0.08 | 5 | SW | ||
| Toms River | NJ | 2026-05-07 03:00 | Mesonet | 60 | 54 | 54 | 52 | 96 | 78 | 0.05 | 9 | WSW | ||
| Toms River | NJ | 2026-05-07 02:00 | Mesonet | 64 | 60 | 56 | 53 | 82 | 74 | 0.00 | 8 | W | ||
| Toms River | NJ | 2026-05-07 01:00 | Mesonet | 66 | 64 | 61 | 56 | 84 | 73 | 0.00 | 11 | SW | ||
| Toms River | NJ | 2026-05-07 00:00 | Mesonet | 66 | 66 | 60 | 60 | 83 | 81 | 0.00 | 10 | SW | ||
| Toms River | NJ | 2026-05-06 23:00 | Mesonet | 66 | 65 | 60 | 60 | 82 | 79 | 0.00 | 7 | SW | ||
| Toms River | NJ | 2026-05-06 22:00 | Mesonet | 67 | 66 | 60 | 59 | 79 | 76 | 0.00 | 6 | SW | ||
| Toms River | NJ | 2026-05-06 21:00 | Mesonet | 69 | 67 | 60 | 59 | 77 | 71 | 0.00 | 6 | SW | ||
| Toms River | NJ | 2026-05-06 19:00 | Mesonet | 71 | 70 | 59 | 58 | 69 | 65 | 0.00 | 11 | WSW | ||
| Toms River | NJ | 2026-05-06 08:00 | Mesonet | 65 | 62 | 56 | 55 | 79 | 70 | 0.00 | 15 | S | ||
| Toms River | NJ | 2026-05-06 18:00 | Mesonet | 71 | 69 | 59 | 58 | 68 | 64 | 0.00 | 16 | SW | ||
| Toms River | NJ | 2026-05-06 17:00 | Mesonet | 70 | 68 | 60 | 58 | 75 | 67 | 0.00 | 16 | S | ||
| Toms River | NJ | 2026-05-06 16:00 | Mesonet | 68 | 66 | 61 | 58 | 84 | 71 | 0.00 | 18 | SW | ||
| Toms River | NJ | 2026-05-06 15:00 | Mesonet | 70 | 65 | 61 | 56 | 84 | 63 | 0.00 | 25 | W | ||
| Toms River | NJ | 2026-05-06 14:00 | Mesonet | 71 | 69 | 61 | 56 | 73 | 61 | 0.00 | 18 | WSW | ||
| Toms River | NJ | 2026-05-06 13:00 | Mesonet | 70 | 69 | 58 | 56 | 68 | 64 | 0.00 | 13 | WSW | ||
| Toms River | NJ | 2026-05-06 12:00 | Mesonet | 71 | 69 | 57 | 55 | 66 | 57 | 0.00 | 13 | SW | ||
| Toms River | NJ | 2026-05-06 11:00 | Mesonet | 73 | 70 | 56 | 52 | 61 | 48 | 0.00 | 20 | WSW | ||
| Toms River | NJ | 2026-05-06 10:00 | Mesonet | 73 | 70 | 56 | 53 | 61 | 52 | 0.00 | 24 | WSW | ||
| Toms River | NJ | 2026-05-06 09:00 | Mesonet | 70 | 65 | 57 | 55 | 72 | 59 | 0.00 | 16 | SSW | ||
| Toms River | NJ | 2026-05-07 06:00 | Mesonet | 51 | 51 | 51 | 50 | 98 | 97 | 0.00 | 6 | NNW |
data collection created in 0.0071349143981934 (queried in 0.002292) rendered in: 4.5061111450195E-5

